createdAt,value
2022-11-15T00:00:54.290Z,101042.75
2022-11-15T00:03:23.477Z,101039.03
2022-11-15T00:05:50.277Z,101036.13
2022-11-15T00:08:17.533Z,101044.94
2022-11-15T00:10:54.275Z,101044.13
2022-11-15T00:13:20.585Z,101049.44
2022-11-15T00:15:46.971Z,101036.13
2022-11-15T00:18:14.917Z,101042.84
2022-11-15T00:20:41.313Z,101035.41
2022-11-15T00:23:07.984Z,101027.81
2022-11-15T00:25:34.405Z,101036.59
2022-11-15T00:28:01.601Z,101021.06
2022-11-15T00:30:28.622Z,101023.53
2022-11-15T00:32:55.491Z,101020.03
2022-11-15T00:35:22.593Z,101023.28
2022-11-15T00:37:49.227Z,101026.75
2022-11-15T00:40:15.899Z,101024.09
2022-11-15T00:42:42.743Z,101029.75
2022-11-15T00:45:10.198Z,101027.88
2022-11-15T00:47:36.629Z,101026.06
2022-11-15T00:50:03.236Z,101027.44
2022-11-15T00:52:29.619Z,101029.03
2022-11-15T00:54:56.000Z,101022.69
2022-11-15T00:57:22.339Z,101008.53
2022-11-15T00:59:48.658Z,101012.38
2022-11-15T01:02:15.043Z,101006.56
2022-11-15T01:04:41.364Z,101006.31
2022-11-15T01:07:07.769Z,100996.50
2022-11-15T01:09:34.193Z,100999.50
2022-11-15T01:12:00.577Z,101000.66
2022-11-15T01:14:27.150Z,101001.44
2022-11-15T01:16:53.571Z,101005.25
2022-11-15T01:19:19.947Z,100998.63
2022-11-15T01:21:46.263Z,100997.34
2022-11-15T01:24:15.690Z,100996.88
2022-11-15T01:26:42.023Z,100996.41
2022-11-15T01:29:08.366Z,100989.00
2022-11-15T01:31:35.974Z,100989.31
2022-11-15T01:34:02.455Z,100984.09
2022-11-15T01:36:28.875Z,100977.47
2022-11-15T01:38:56.891Z,100984.16
2022-11-15T01:41:26.120Z,100972.22
2022-11-15T01:43:58.287Z,100976.00
2022-11-15T01:46:34.120Z,100973.13
2022-11-15T01:49:11.474Z,100972.63
2022-11-15T01:51:38.582Z,100971.34
2022-11-15T01:54:09.648Z,100965.28
2022-11-15T01:56:46.297Z,100970.16
2022-11-15T01:59:13.445Z,100957.38
2022-11-15T02:01:39.982Z,100958.75
2022-11-15T02:04:13.832Z,100959.88
2022-11-15T02:06:41.308Z,100966.81
2022-11-15T02:09:07.929Z,100965.28
2022-11-15T02:11:34.631Z,100947.22
2022-11-15T02:14:02.168Z,100946.16
2022-11-15T02:16:47.179Z,100947.28
2022-11-15T02:19:41.058Z,100948.41
2022-11-15T02:22:35.398Z,100932.72
2022-11-15T02:25:16.982Z,100932.00
2022-11-15T02:28:08.563Z,100932.88
2022-11-15T02:30:44.092Z,100930.28
2022-11-15T02:33:25.882Z,100926.88
2022-11-15T02:36:02.613Z,100916.53
2022-11-15T02:38:28.872Z,100917.41
2022-11-15T02:41:10.419Z,100910.50
2022-11-15T02:44:14.347Z,100907.34
2022-11-15T02:47:02.255Z,100898.84
2022-11-15T02:49:32.254Z,100899.41
2022-11-15T02:51:58.718Z,100905.38
2022-11-15T02:54:29.530Z,100892.31
2022-11-15T02:57:00.922Z,100895.31
2022-11-15T03:00:01.947Z,100891.34
2022-11-15T03:02:55.581Z,100884.69
2022-11-15T03:05:40.495Z,100876.47
2022-11-15T03:08:09.799Z,100875.94
2022-11-15T03:10:54.813Z,100870.09
2022-11-15T03:13:45.529Z,100876.81
2022-11-15T03:16:27.299Z,100872.84
2022-11-15T03:19:38.532Z,100885.44
2022-11-15T03:22:08.061Z,100880.38
2022-11-15T03:24:37.227Z,100871.88
2022-11-15T03:27:06.490Z,100887.63
2022-11-15T03:29:36.769Z,100880.75
2022-11-15T03:32:11.653Z,100891.72
2022-11-15T03:34:48.157Z,100885.09
2022-11-15T03:37:16.859Z,100885.13
2022-11-15T03:39:44.119Z,100891.59
2022-11-15T03:42:17.765Z,100883.31
2022-11-15T03:45:02.782Z,100884.44
2022-11-15T03:47:59.367Z,100892.72
2022-11-15T03:50:26.828Z,100885.84
2022-11-15T03:52:55.401Z,100887.44
2022-11-15T03:55:22.178Z,100890.69
2022-11-15T03:57:54.407Z,100886.44
2022-11-15T04:00:20.859Z,100880.59
2022-11-15T04:02:47.234Z,100879.28
2022-11-15T04:05:13.546Z,100871.03
2022-11-15T04:07:40.021Z,100876.66
2022-11-15T04:10:07.322Z,100871.88
2022-11-15T04:12:36.463Z,100880.19
2022-11-15T04:15:23.626Z,100873.78
2022-11-15T04:17:55.038Z,100872.44
2022-11-15T04:20:46.636Z,100869.53
2022-11-15T04:23:32.487Z,100868.47
2022-11-15T04:26:01.970Z,100872.00
2022-11-15T04:28:28.505Z,100869.59
2022-11-15T04:30:54.922Z,100866.94
2022-11-15T04:33:22.285Z,100862.38
2022-11-15T04:36:08.632Z,100858.94
2022-11-15T04:38:35.955Z,100861.38
2022-11-15T04:41:03.034Z,100873.16
2022-11-15T04:43:30.209Z,100865.66
2022-11-15T04:45:56.780Z,100857.13
2022-11-15T04:48:23.127Z,100853.41
2022-11-15T04:50:50.003Z,100862.53
2022-11-15T04:53:16.596Z,100859.59
2022-11-15T04:55:46.297Z,100856.66
2022-11-15T04:58:12.604Z,100851.59
2022-11-15T05:00:40.645Z,100856.69
2022-11-15T05:03:25.458Z,100852.16
2022-11-15T05:05:51.844Z,100859.91
2022-11-15T05:08:18.172Z,100862.06
2022-11-15T05:10:44.474Z,100869.03
2022-11-15T05:13:10.782Z,100863.16
2022-11-15T05:15:37.105Z,100865.56
2022-11-15T05:18:03.523Z,100870.66
2022-11-15T05:20:29.851Z,100868.81
2022-11-15T05:22:59.019Z,100867.75
2022-11-15T05:25:25.702Z,100879.50
2022-11-15T05:27:52.100Z,100872.78
2022-11-15T05:30:18.647Z,100877.63
2022-11-15T05:32:45.476Z,100877.38
2022-11-15T05:35:22.575Z,100872.03
2022-11-15T05:37:49.563Z,100873.38
2022-11-15T05:40:16.370Z,100876.84
2022-11-15T05:42:42.699Z,100876.59
2022-11-15T05:45:10.365Z,100885.16
2022-11-15T05:47:39.529Z,100885.44
2022-11-15T05:50:06.600Z,100881.44
2022-11-15T05:52:37.056Z,100886.00
2022-11-15T05:55:05.598Z,100896.16
2022-11-15T05:57:31.961Z,100894.03
2022-11-15T05:59:59.108Z,100887.34
2022-11-15T06:02:25.553Z,100888.72
2022-11-15T06:04:51.897Z,100886.59
2022-11-15T06:07:18.308Z,100890.34
2022-11-15T06:09:44.732Z,100893.81
2022-11-15T06:12:11.036Z,100899.97
2022-11-15T06:14:37.453Z,100889.28
2022-11-15T06:17:08.557Z,100892.53
2022-11-15T06:19:37.440Z,100889.06
2022-11-15T06:22:03.840Z,100900.31
2022-11-15T06:24:30.218Z,100904.06
2022-11-15T06:26:56.593Z,100910.22
2022-11-15T06:29:22.935Z,100904.63
2022-11-15T06:31:49.449Z,100904.34
2022-11-15T06:34:15.826Z,100905.94
2022-11-15T06:36:42.135Z,100911.84
2022-11-15T06:39:08.528Z,100913.72
2022-11-15T06:41:36.094Z,100910.78
2022-11-15T06:44:03.728Z,100909.72
2022-11-15T06:46:30.152Z,100905.16
2022-11-15T06:48:56.515Z,100899.81
2022-11-15T06:51:22.863Z,100902.22
2022-11-15T06:53:49.236Z,100911.34
2022-11-15T06:56:15.557Z,100911.59
2022-11-15T06:58:41.942Z,100923.34
2022-11-15T07:01:12.101Z,100923.91
2022-11-15T07:03:41.406Z,100933.56
2022-11-15T07:06:08.947Z,100929.25
2022-11-15T07:08:36.280Z,100938.91
2022-11-15T07:11:04.779Z,100935.16
2022-11-15T07:13:36.196Z,100933.81
2022-11-15T07:16:04.761Z,100932.75
2022-11-15T07:18:31.253Z,100936.00
2022-11-15T07:21:01.515Z,100933.03
2022-11-15T07:23:28.045Z,100946.44
2022-11-15T07:25:54.471Z,100935.47
2022-11-15T07:28:20.932Z,100932.78
2022-11-15T07:30:47.476Z,100932.78
2022-11-15T07:33:13.874Z,100935.19
2022-11-15T07:35:40.262Z,100931.44
2022-11-15T07:38:06.567Z,100932.28
2022-11-15T07:40:33.322Z,100939.22
2022-11-15T07:43:01.761Z,100935.47
2022-11-15T07:45:28.283Z,100938.69
2022-11-15T07:47:56.779Z,100940.31
2022-11-15T07:50:26.504Z,100933.09
2022-11-15T07:52:57.407Z,100934.94
2022-11-15T07:55:24.961Z,100932.81
2022-11-15T07:57:51.401Z,100926.13
2022-11-15T08:00:18.598Z,100922.91
2022-11-15T08:02:46.163Z,100935.50
2022-11-15T08:05:12.792Z,100926.41
2022-11-15T08:07:39.646Z,100923.72
2022-11-15T08:10:08.144Z,100923.19
2022-11-15T08:12:35.088Z,100930.16
2022-11-15T08:15:01.554Z,100928.03
2022-11-15T08:17:27.881Z,100917.03
2022-11-15T08:19:54.266Z,100916.81
2022-11-15T08:22:20.632Z,100920.03
2022-11-15T08:24:46.957Z,100923.22
2022-11-15T08:27:16.237Z,100923.75
2022-11-15T08:29:43.945Z,100923.50
2022-11-15T08:32:11.749Z,100919.50
2022-11-15T08:34:39.232Z,100920.03
2022-11-15T08:37:05.792Z,100919.75
2022-11-15T08:39:32.407Z,100917.09
2022-11-15T08:41:58.976Z,100911.47
2022-11-15T08:44:25.322Z,100906.13
2022-11-15T08:46:51.826Z,100895.91
2022-11-15T08:49:19.157Z,100888.69
2022-11-15T08:51:45.503Z,100892.72
2022-11-15T08:54:11.861Z,100889.53
2022-11-15T08:56:38.180Z,100893.53
2022-11-15T08:59:04.507Z,100893.28
2022-11-15T09:01:30.897Z,100897.56
2022-11-15T09:03:57.293Z,100886.59
2022-11-15T09:06:23.829Z,100888.47
2022-11-15T09:08:50.185Z,100894.91
2022-11-15T09:11:18.857Z,100893.03
2022-11-15T09:13:45.360Z,100894.09
2022-11-15T09:16:13.549Z,100891.94
2022-11-15T09:18:39.891Z,100885.78
2022-11-15T09:21:06.236Z,100880.13
2022-11-15T09:23:32.607Z,100875.03
2022-11-15T09:26:04.110Z,100879.56
2022-11-15T09:28:32.022Z,100883.31
2022-11-15T09:31:00.040Z,100880.13
2022-11-15T09:33:27.360Z,100879.31
2022-11-15T09:35:54.148Z,100886.28
2022-11-15T09:38:21.263Z,100881.47
2022-11-15T09:40:56.669Z,100872.88
2022-11-15T09:43:58.223Z,100874.22
2022-11-15T09:46:43.387Z,100876.91
2022-11-15T09:49:12.812Z,100882.28
2022-11-15T09:51:48.644Z,100874.47
2022-11-15T09:54:56.537Z,100861.63
2022-11-15T09:58:05.017Z,100864.78
2022-11-15T10:00:48.209Z,100855.63
2022-11-15T10:03:17.484Z,100866.56
2022-11-15T10:05:46.904Z,100861.19
2022-11-15T10:08:32.290Z,100857.91
2022-11-15T10:14:11.087Z,100852.25
2022-11-15T10:16:50.651Z,100846.72
2022-11-15T10:19:27.181Z,100845.66
2022-11-15T10:22:27.541Z,100851.81
2022-11-15T10:25:21.960Z,100844.63
2022-11-15T10:27:53.915Z,100842.28
2022-11-15T10:30:21.270Z,100845.72
2022-11-15T10:32:50.209Z,100840.44
2022-11-15T10:35:20.358Z,100834.00
2022-11-15T10:37:46.777Z,100828.38
2022-11-15T10:40:24.629Z,100853.31
2022-11-15T10:43:09.879Z,100823.00
2022-11-15T10:45:36.660Z,100817.34
2022-11-15T10:48:15.215Z,100807.88
2022-11-15T10:50:43.823Z,100807.88
2022-11-15T10:53:22.609Z,100802.28
2022-11-15T10:55:52.409Z,100792.09
2022-11-15T10:58:28.964Z,100794.22
2022-11-15T11:00:55.496Z,100798.78
2022-11-15T11:03:27.899Z,100793.09
2022-11-15T11:06:13.853Z,100785.38
2022-11-15T11:08:40.786Z,100777.78
2022-11-15T11:11:08.851Z,100778.50
2022-11-15T11:13:40.474Z,100771.22
2022-11-15T11:16:15.753Z,100786.66
2022-11-15T11:18:57.125Z,100776.78
2022-11-15T11:21:44.590Z,100771.16
2022-11-15T11:24:35.054Z,100773.25
2022-11-15T11:27:18.638Z,100769.59
2022-11-15T11:30:03.227Z,100755.19
2022-11-15T11:32:54.791Z,100764.44
2022-11-15T11:35:31.776Z,100770.88
2022-11-15T11:38:37.200Z,100768.19
2022-11-15T11:41:30.816Z,100759.31
2022-11-15T11:44:12.431Z,100756.16
2022-11-15T11:46:57.681Z,100758.22
2022-11-15T11:49:29.826Z,100752.16
2022-11-15T11:52:12.161Z,100751.66
2022-11-15T11:54:49.934Z,100743.81
2022-11-15T11:57:26.651Z,100741.03
2022-11-15T12:00:04.518Z,100731.22
2022-11-15T12:02:44.223Z,100732.28
2022-11-15T12:05:18.518Z,100713.13
2022-11-15T12:07:49.453Z,100710.19
2022-11-15T12:10:24.202Z,100710.88
2022-11-15T12:13:06.958Z,100708.78
2022-11-15T12:15:46.661Z,100701.22
2022-11-15T12:18:16.472Z,100699.81
2022-11-15T12:20:54.227Z,100701.31
2022-11-15T12:23:26.388Z,100692.59
2022-11-15T12:26:03.939Z,100689.91
2022-11-15T12:29:04.791Z,100672.38
2022-11-15T12:31:35.164Z,100673.09
2022-11-15T12:34:40.743Z,100664.00
2022-11-15T12:37:39.197Z,100661.47
2022-11-15T12:40:25.293Z,100666.22
2022-11-15T12:43:15.798Z,100658.94
2022-11-15T12:45:46.721Z,100646.91
2022-11-15T12:48:19.291Z,100646.75
2022-11-15T12:50:51.611Z,100646.47
2022-11-15T12:53:24.072Z,100633.19
2022-11-15T12:56:05.498Z,100631.59
2022-11-15T12:58:59.549Z,100629.50
2022-11-15T13:01:31.954Z,100619.28
2022-11-15T13:04:20.203Z,100605.06
2022-11-15T13:06:48.356Z,100612.28
2022-11-15T13:09:29.785Z,100611.41
2022-11-15T13:11:57.794Z,100597.88
2022-11-15T13:14:48.750Z,100595.50
2022-11-15T13:17:21.030Z,100595.19
2022-11-15T13:19:59.615Z,100594.25
2022-11-15T13:22:46.180Z,100588.56
2022-11-15T13:25:21.232Z,100583.06
2022-11-15T13:27:49.958Z,100584.00
2022-11-15T13:30:28.512Z,100579.59
2022-11-15T13:32:55.611Z,100577.75
2022-11-15T13:35:31.039Z,100577.63
2022-11-15T13:37:58.694Z,100573.69
2022-11-15T13:40:28.600Z,100567.56
2022-11-15T13:42:55.128Z,100573.06
2022-11-15T13:45:21.619Z,100558.75
2022-11-15T13:47:58.937Z,100555.25
2022-11-15T13:50:34.454Z,100553.38
2022-11-15T13:53:04.341Z,100546.44
2022-11-15T13:55:33.921Z,100545.41
2022-11-15T13:58:07.007Z,100544.16
2022-11-15T14:00:36.367Z,100538.84
2022-11-15T14:03:15.665Z,100534.25
2022-11-15T14:05:42.211Z,100526.53
2022-11-15T14:08:17.372Z,100523.38
2022-11-15T14:10:43.825Z,100527.44
2022-11-15T14:13:29.158Z,100526.97
2022-11-15T14:15:55.506Z,100522.47
2022-11-15T14:18:46.825Z,100518.47
2022-11-15T14:21:13.810Z,100517.94
2022-11-15T14:23:40.263Z,100513.59
2022-11-15T14:26:11.915Z,100508.00
2022-11-15T14:28:41.422Z,100495.09
2022-11-15T14:31:13.886Z,100498.06
2022-11-15T14:33:41.096Z,100493.81
2022-11-15T14:36:16.146Z,100490.63
2022-11-15T14:38:43.824Z,100483.38
2022-11-15T14:41:20.877Z,100483.59
2022-11-15T14:43:47.372Z,100480.69
2022-11-15T14:46:13.863Z,100479.63
2022-11-15T14:48:40.198Z,100463.78
2022-11-15T14:51:21.825Z,100466.19
2022-11-15T14:53:48.993Z,100466.97
2022-11-15T14:56:17.179Z,100457.63
2022-11-15T14:58:43.664Z,100445.28
2022-11-15T15:01:24.417Z,100446.34
2022-11-15T15:03:53.071Z,100436.41
2022-11-15T15:06:19.799Z,100439.38
2022-11-15T15:08:48.940Z,100432.16
2022-11-15T15:11:21.619Z,100438.31
2022-11-15T15:13:48.416Z,100421.16
2022-11-15T15:16:14.821Z,100420.06
2022-11-15T15:18:41.150Z,100423.84
2022-11-15T15:21:20.895Z,100418.47
2022-11-15T15:23:47.296Z,100401.28
2022-11-15T15:26:13.703Z,100408.34
2022-11-15T15:28:40.404Z,100398.16
2022-11-15T15:31:07.863Z,100391.97
2022-11-15T15:33:34.236Z,100383.91
2022-11-15T15:36:00.597Z,100381.53
2022-11-15T15:38:27.205Z,100370.81
2022-11-15T15:40:53.561Z,100382.09
2022-11-15T15:43:19.908Z,100367.09
2022-11-15T15:45:46.484Z,100366.56
2022-11-15T15:48:17.830Z,100363.41
2022-11-15T15:50:46.019Z,100368.75
2022-11-15T15:53:13.779Z,100352.94
2022-11-15T15:55:40.831Z,100365.03
2022-11-15T15:58:08.938Z,100365.81
2022-11-15T16:00:35.258Z,100357.00
2022-11-15T16:03:01.606Z,100347.03
2022-11-15T16:05:28.071Z,100352.41
2022-11-15T16:07:54.494Z,100355.09
2022-11-15T16:10:32.707Z,100345.16
2022-11-15T16:12:59.279Z,100328.84
2022-11-15T16:15:28.222Z,100333.91
2022-11-15T16:17:56.754Z,100327.25
2022-11-15T16:20:47.365Z,100319.19
2022-11-15T16:23:18.872Z,100325.34
2022-11-15T16:25:47.939Z,100333.91
2022-11-15T16:28:30.293Z,100333.91
2022-11-15T16:31:03.887Z,100325.88
2022-11-15T16:33:31.264Z,100330.38
2022-11-15T16:35:58.553Z,100328.22
2022-11-15T16:38:24.922Z,100322.03
2022-11-15T16:40:51.340Z,100321.25
2022-11-15T16:43:18.249Z,100330.59
2022-11-15T16:45:44.867Z,100318.78
2022-11-15T16:48:28.590Z,100337.56
2022-11-15T16:50:57.142Z,100336.47
2022-11-15T16:53:24.088Z,100338.88
2022-11-15T16:55:50.520Z,100335.09
2022-11-15T16:58:16.923Z,100348.03
2022-11-15T17:00:43.583Z,100341.06
2022-11-15T17:03:10.537Z,100347.78
2022-11-15T17:05:36.863Z,100337.34
2022-11-15T17:08:03.212Z,100338.13
2022-11-15T17:10:29.609Z,100341.91
2022-11-15T17:12:56.338Z,100341.09
2022-11-15T17:15:24.398Z,100339.81
2022-11-15T17:17:52.982Z,100330.66
2022-11-15T17:20:21.018Z,100323.91
2022-11-15T17:22:47.534Z,100324.13
2022-11-15T17:25:14.067Z,100323.06
2022-11-15T17:27:41.000Z,100328.44
2022-11-15T17:30:08.022Z,100329.00
2022-11-15T17:32:37.578Z,100323.19
2022-11-15T17:35:11.947Z,100315.78
2022-11-15T17:37:41.408Z,100323.66
2022-11-15T17:40:08.208Z,100320.22
2022-11-15T17:42:34.545Z,100319.19
2022-11-15T17:45:04.024Z,100320.56
2022-11-15T17:47:34.675Z,100315.78
2022-11-15T17:50:00.999Z,100309.38
2022-11-15T17:52:27.347Z,100315.03
2022-11-15T17:54:53.671Z,100303.78
2022-11-15T17:57:20.037Z,100307.53
2022-11-15T17:59:46.353Z,100311.09
2022-11-15T18:02:12.791Z,100314.06
2022-11-15T18:04:40.547Z,100304.69
2022-11-15T18:07:06.959Z,100301.47
2022-11-15T18:09:33.304Z,100299.09
2022-11-15T18:11:59.699Z,100298.06
2022-11-15T18:14:26.614Z,100299.13
2022-11-15T18:16:54.832Z,100293.28
2022-11-15T18:19:21.146Z,100297.03
2022-11-15T18:21:56.810Z,100290.34
2022-11-15T18:24:34.848Z,100294.09
2022-11-15T18:27:02.782Z,100293.88
2022-11-15T18:29:29.172Z,100283.44
2022-11-15T18:31:55.941Z,100281.84
2022-11-15T18:34:33.356Z,100282.94
2022-11-15T18:37:02.572Z,100277.88
2022-11-15T18:39:29.012Z,100277.88
2022-11-15T18:41:55.876Z,100279.22
2022-11-15T18:44:22.322Z,100281.09
2022-11-15T18:46:48.678Z,100276.00
2022-11-15T18:49:16.961Z,100276.81
2022-11-15T18:51:43.898Z,100269.06
2022-11-15T18:54:14.527Z,100267.47
2022-11-15T18:56:41.432Z,100261.28
2022-11-15T18:59:08.720Z,100262.13
2022-11-15T19:01:40.930Z,100251.41
2022-11-15T19:04:14.356Z,100260.22
2022-11-15T19:06:42.947Z,100248.72
2022-11-15T19:09:11.011Z,100251.41
2022-11-15T19:11:39.543Z,100254.84
2022-11-15T19:14:07.742Z,100245.22
2022-11-15T19:16:37.048Z,100252.19
2022-11-15T19:19:07.039Z,100248.97
2022-11-15T19:21:33.540Z,100246.31
2022-11-15T19:24:00.670Z,100259.44
2022-11-15T19:26:28.313Z,100248.97
2022-11-15T19:28:57.042Z,100257.25
2022-11-15T19:31:24.725Z,100252.69
2022-11-15T19:33:52.658Z,100254.31
2022-11-15T19:36:24.007Z,100248.13
2022-11-15T19:38:50.356Z,100249.19
2022-11-15T19:41:19.089Z,100247.34
2022-11-15T19:43:50.663Z,100248.41
2022-11-15T19:46:18.552Z,100254.56
2022-11-15T19:48:44.930Z,100251.09
2022-11-15T19:51:13.293Z,100250.03
2022-11-15T19:53:40.425Z,100240.38
2022-11-15T19:56:11.398Z,100239.59
2022-11-15T19:58:38.292Z,100242.28
2022-11-15T20:01:07.289Z,100234.22
2022-11-15T20:03:35.964Z,100233.13
2022-11-15T20:06:05.166Z,100232.03
2022-11-15T20:08:32.612Z,100228.28
2022-11-15T20:11:00.734Z,100228.28
2022-11-15T20:13:27.968Z,100230.19
2022-11-15T20:15:54.959Z,100231.25
2022-11-15T20:18:21.722Z,100222.94
2022-11-15T20:20:48.161Z,100217.84
2022-11-15T20:23:14.697Z,100225.91
2022-11-15T20:25:44.649Z,100215.47
2022-11-15T20:28:16.628Z,100208.22
2022-11-15T20:30:47.539Z,100208.22
2022-11-15T20:33:14.887Z,100205.53
2022-11-15T20:35:41.252Z,100205.53
2022-11-15T20:38:08.143Z,100204.47
2022-11-15T20:40:34.680Z,100203.38
2022-11-15T20:43:01.031Z,100201.47
2022-11-15T20:45:27.349Z,100197.19
2022-11-15T20:47:59.966Z,100196.13
2022-11-15T20:50:42.301Z,100204.97
2022-11-15T20:53:10.821Z,100197.72
2022-11-15T20:55:41.587Z,100190.50
2022-11-15T20:58:09.359Z,100189.41
2022-11-15T21:00:36.800Z,100185.91
2022-11-15T21:03:07.260Z,100188.34
2022-11-15T21:05:35.097Z,100188.03
2022-11-15T21:08:01.663Z,100183.47
2022-11-15T21:10:46.338Z,100185.06
2022-11-15T21:13:12.723Z,100182.38
2022-11-15T21:15:39.042Z,100174.34
2022-11-15T21:18:05.599Z,100172.19
2022-11-15T21:20:31.987Z,100179.13
2022-11-15T21:22:58.312Z,100172.69
2022-11-15T21:25:24.622Z,100168.13
2022-11-15T21:27:52.249Z,100162.50
2022-11-15T21:30:18.745Z,100172.41
2022-11-15T21:32:45.543Z,100156.03
2022-11-15T21:35:12.000Z,100154.97
2022-11-15T21:37:38.359Z,100147.69
2022-11-15T21:40:05.221Z,100145.84
2022-11-15T21:42:31.523Z,100140.47
2022-11-15T21:44:57.926Z,100150.59
2022-11-15T21:47:24.239Z,100147.34
2022-11-15T21:49:50.607Z,100146.28
2022-11-15T21:52:16.989Z,100140.91
2022-11-15T21:54:44.432Z,100139.00
2022-11-15T21:57:11.242Z,100137.44
2022-11-15T22:00:00.151Z,100134.47
2022-11-15T22:02:26.534Z,100134.16
2022-11-15T22:04:52.916Z,100130.69
2022-11-15T22:07:19.333Z,100130.41
2022-11-15T22:09:45.799Z,100126.94
2022-11-15T22:12:12.692Z,100126.63
2022-11-15T22:14:39.081Z,100120.50
2022-11-15T22:17:05.508Z,100123.16
2022-11-15T22:19:31.913Z,100110.53
2022-11-15T22:21:58.335Z,100121.00
2022-11-15T22:24:24.871Z,100121.00
2022-11-15T22:26:51.178Z,100114.81
2022-11-15T22:29:17.493Z,100113.75
2022-11-15T22:31:43.895Z,100113.75
2022-11-15T22:34:10.295Z,100104.41
2022-11-15T22:36:58.387Z,100102.50
2022-11-15T22:39:23.062Z,100102.81
2022-11-15T22:41:49.439Z,100097.94
2022-11-15T22:44:15.789Z,100097.94
2022-11-15T22:46:42.197Z,100092.59
2022-11-15T22:49:09.197Z,100091.00
2022-11-15T22:51:35.681Z,100084.81
2022-11-15T22:54:02.335Z,100082.13
2022-11-15T22:56:28.654Z,100085.63
2022-11-15T22:58:55.074Z,100079.44
2022-11-15T23:01:22.006Z,100069.53
2022-11-15T23:03:48.737Z,100075.69
2022-11-15T23:06:15.209Z,100076.50
2022-11-15T23:08:41.960Z,100074.59
2022-11-15T23:11:29.133Z,100067.06
2022-11-15T23:13:55.617Z,100069.75
2022-11-15T23:16:22.569Z,100065.16
2022-11-15T23:18:59.403Z,100059.53
2022-11-15T23:21:50.461Z,100066.00
2022-11-15T23:24:17.751Z,100050.69
2022-11-15T23:26:46.107Z,100053.38
2022-11-15T23:29:14.575Z,100048.31
2022-11-15T23:32:02.486Z,100049.09
2022-11-15T23:34:30.522Z,100047.50
2022-11-15T23:36:57.343Z,100047.22
2022-11-15T23:39:23.866Z,100045.31
2022-11-15T23:41:50.327Z,100044.53
2022-11-15T23:44:16.643Z,100038.09
2022-11-15T23:46:43.007Z,100039.97
2022-11-15T23:49:09.669Z,100037.78
2022-11-15T23:51:36.214Z,100031.63
2022-11-15T23:54:02.645Z,100032.41
2022-11-15T23:56:29.056Z,100032.41
2022-11-15T23:58:55.444Z,100036.19
